Time;durP1;ratioP1;P1;durP2;ratioP2;P2;SDS_P1;SDS_P2;PMS_P1;PMS_P2;Temp;Humidity;BMP_temperature;BMP_pressure;BME280_temperature;BME280_humidity;BME280_pressure;Samples;Min_cycle;Max_cycle;Signal;HPM_P1;HPM_P2
2023/12/22 00:00:00;;;;;;;18.60;1.77;;;;;;;;;;4988969;28;20157;-96
2023/12/22 00:02:25;;;;;;;18.87;1.30;;;;;;;;;;4970703;28;20033;-96
2023/12/22 00:04:51;;;;;;;18.33;1.73;;;;;;;;;;4962928;28;20361;-96
2023/12/22 00:07:16;;;;;;;14.73;1.77;;;;;;;;;;4958344;28;20041;-96
2023/12/22 00:09:41;;;;;;;15.60;0.97;;;;;;;;;;4957692;28;20019;-96
2023/12/22 00:12:06;;;;;;;10.00;1.20;;;;;;;;;;4957125;28;20286;-96
2023/12/22 00:14:32;;;;;;;13.63;1.37;;;;;;;;;;4974849;28;20470;-96
2023/12/22 00:16:57;;;;;;;16.07;1.43;;;;;;;;;;4974575;28;20023;-96
2023/12/22 00:19:22;;;;;;;14.73;1.90;;;;;;;;;;4957777;28;20022;-95
2023/12/22 00:21:47;;;;;;;18.67;1.50;;;;;;;;;;4958068;28;20463;-96
2023/12/22 00:24:13;;;;;;;18.33;1.60;;;;;;;;;;4981739;28;20475;-96
2023/12/22 00:26:41;;;;;;;28.70;1.60;;;;;;;;;;4990691;28;20038;-96
2023/12/22 00:29:41;;;;;;;15.95;1.58;;;;;;;;;;4985047;28;20117;-96
2023/12/22 00:32:09;;;;;;;22.35;1.98;;;;;;;;;;4990673;28;20062;-96
2023/12/22 00:34:35;;;;;;;18.65;1.50;;;;;;;;;;4973872;28;20027;-96
2023/12/22 00:37:00;;;;;;;9.77;1.70;;;;;;;;;;4964826;28;20133;-96
2023/12/22 00:39:26;;;;;;;14.70;1.27;;;;;;;;;;4989196;28;20121;-96
2023/12/22 00:41:51;;;;;;;15.90;1.63;;;;;;;;;;4968816;28;20130;-96
2023/12/22 00:44:19;;;;;;;12.43;1.30;;;;;;;;;;4971498;28;20434;-96
2023/12/22 00:46:45;;;;;;;14.23;1.77;;;;;;;;;;4993300;28;20029;-96
2023/12/22 00:49:10;;;;;;;18.57;1.47;;;;;;;;;;4978681;28;20031;-96
2023/12/22 00:51:35;;;;;;;17.77;1.73;;;;;;;;;;5000329;28;20030;-96
2023/12/22 00:54:00;;;;;;;17.87;2.10;;;;;;;;;;4976773;28;20039;-96
2023/12/22 00:56:26;;;;;;;18.83;1.43;;;;;;;;;;4984101;28;20035;-95
2023/12/22 00:58:51;;;;;;;17.77;1.63;;;;;;;;;;4963682;28;20353;-96
2023/12/22 01:01:16;;;;;;;17.10;1.40;;;;;;;;;;4992197;28;20034;-95
2023/12/22 01:03:41;;;;;;;13.37;1.27;;;;;;;;;;4992000;28;20018;-96
2023/12/22 01:06:07;;;;;;;16.40;1.47;;;;;;;;;;4990843;28;20078;-96
2023/12/22 01:08:32;;;;;;;19.27;1.50;;;;;;;;;;4989420;28;20031;-96
2023/12/22 01:10:57;;;;;;;24.53;2.00;;;;;;;;;;4992489;28;20025;-96
2023/12/22 01:13:22;;;;;;;19.33;1.80;;;;;;;;;;4976260;28;20025;-95
2023/12/22 01:15:48;;;;;;;17.70;2.00;;;;;;;;;;4982811;28;20038;-94
2023/12/22 01:18:13;;;;;;;19.90;1.70;;;;;;;;;;4971948;28;20016;-96
2023/12/22 01:20:38;;;;;;;25.97;2.07;;;;;;;;;;4952830;29;20019;-95
2023/12/22 01:23:03;;;;;;;24.73;2.00;;;;;;;;;;4973863;28;20038;-96
2023/12/22 01:25:29;;;;;;;21.73;2.00;;;;;;;;;;4981666;28;20030;-96
2023/12/22 01:27:54;;;;;;;23.43;1.90;;;;;;;;;;4981067;28;20110;-96
2023/12/22 01:30:19;;;;;;;27.87;2.10;;;;;;;;;;4962979;28;20146;-96
2023/12/22 01:32:44;;;;;;;26.37;1.93;;;;;;;;;;4964297;28;20023;-96
2023/12/22 01:35:10;;;;;;;26.50;2.87;;;;;;;;;;4976975;28;20030;-96
2023/12/22 01:37:36;;;;;;;28.07;3.20;;;;;;;;;;4966547;28;20023;-96
2023/12/22 01:40:01;;;;;;;24.57;2.83;;;;;;;;;;4972829;28;20368;-96
2023/12/22 01:42:27;;;;;;;25.20;3.15;;;;;;;;;;4973307;28;20022;-96
2023/12/22 01:44:52;;;;;;;32.97;2.30;;;;;;;;;;4978272;28;20459;-96
2023/12/22 01:47:17;;;;;;;26.70;2.80;;;;;;;;;;4959773;28;20429;-96
2023/12/22 01:49:43;;;;;;;20.07;2.10;;;;;;;;;;4977384;28;20015;-96
2023/12/22 01:52:08;;;;;;;20.60;2.13;;;;;;;;;;4984896;28;20018;-96
2023/12/22 01:54:34;;;;;;;27.88;2.97;;;;;;;;;;4996540;28;20023;-95
2023/12/22 01:56:59;;;;;;;21.30;2.70;;;;;;;;;;4979422;28;20105;-95
2023/12/22 01:59:25;;;;;;;13.40;2.07;;;;;;;;;;4977668;28;20129;-95
2023/12/22 02:01:50;;;;;;;22.65;2.88;;;;;;;;;;4971448;28;20015;-95
2023/12/22 02:04:15;;;;;;;20.47;1.90;;;;;;;;;;4961144;28;20423;-94
2023/12/22 02:06:42;;;;;;;24.97;1.83;;;;;;;;;;4960927;28;20086;-96
2023/12/22 02:09:07;;;;;;;15.13;1.73;;;;;;;;;;4959263;28;20098;-96
2023/12/22 02:11:32;;;;;;;23.20;2.03;;;;;;;;;;4968637;28;20050;-96
2023/12/22 02:13:58;;;;;;;18.57;2.33;;;;;;;;;;4966764;28;20034;-96
2023/12/22 02:16:23;;;;;;;21.80;2.30;;;;;;;;;;4975377;28;20129;-96
2023/12/22 02:18:51;;;;;;;21.83;2.40;;;;;;;;;;4955628;28;20033;-94
2023/12/22 02:21:16;;;;;;;18.30;1.67;;;;;;;;;;4958030;28;20034;-96
2023/12/22 02:23:41;;;;;;;22.17;1.67;;;;;;;;;;4974500;28;20149;-96
2023/12/22 02:26:10;;;;;;;22.63;1.90;;;;;;;;;;4975045;28;20419;-96
2023/12/22 02:28:36;;;;;;;21.80;2.15;;;;;;;;;;4957238;28;20031;-96
2023/12/22 02:31:16;;;;;;;17.58;2.15;;;;;;;;;;4973753;28;20051;-94
2023/12/22 02:33:42;;;;;;;19.10;2.03;;;;;;;;;;4957701;28;20023;-93
2023/12/22 02:36:08;;;;;;;18.77;1.75;;;;;;;;;;4947864;28;20054;-93
2023/12/22 02:38:40;;;;;;;24.23;2.45;;;;;;;;;;4956548;28;20110;-93
2023/12/22 02:41:05;;;;;;;22.88;2.40;;;;;;;;;;4940709;28;20047;-93
2023/12/22 02:43:31;;;;;;;12.93;1.50;;;;;;;;;;4958269;28;20023;-93
2023/12/22 02:45:56;;;;;;;27.58;2.20;;;;;;;;;;4975691;28;20018;-93
2023/12/22 02:48:21;;;;;;;14.23;1.70;;;;;;;;;;4979042;28;20618;-94
2023/12/22 02:50:46;;;;;;;15.10;2.00;;;;;;;;;;4967196;28;20010;-95
2023/12/22 02:53:12;;;;;;;13.43;1.83;;;;;;;;;;4994439;28;20058;-95
2023/12/22 02:55:37;;;;;;;18.53;1.67;;;;;;;;;;4958789;28;20073;-95
2023/12/22 02:58:02;;;;;;;18.00;1.70;;;;;;;;;;4954203;28;20034;-95
2023/12/22 03:00:27;;;;;;;21.73;2.50;;;;;;;;;;4963580;28;20042;-95
2023/12/22 03:02:53;;;;;;;21.00;1.80;;;;;;;;;;4974720;28;20074;-96
2023/12/22 03:05:18;;;;;;;13.47;1.67;;;;;;;;;;4975774;28;20023;-95
2023/12/22 03:07:43;;;;;;;17.90;1.77;;;;;;;;;;4960223;28;20671;-96
2023/12/22 03:10:08;;;;;;;10.23;1.50;;;;;;;;;;4970439;28;20106;-96
2023/12/22 03:12:33;;;;;;;17.47;1.87;;;;;;;;;;4958198;28;20057;-94
2023/12/22 03:14:59;;;;;;;16.83;1.90;;;;;;;;;;4973672;28;20282;-94
2023/12/22 03:17:24;;;;;;;15.87;1.63;;;;;;;;;;4952431;28;20073;-95
2023/12/22 03:19:49;;;;;;;20.20;2.50;;;;;;;;;;4956161;28;20463;-94
2023/12/22 03:22:14;;;;;;;22.07;2.37;;;;;;;;;;4941896;29;20023;-93
2023/12/22 03:24:40;;;;;;;26.17;2.60;;;;;;;;;;4969808;28;20072;-94
2023/12/22 03:27:05;;;;;;;23.10;2.07;;;;;;;;;;4958398;28;20022;-94
2023/12/22 03:29:30;;;;;;;21.20;3.40;;;;;;;;;;4975341;28;20015;-94
2023/12/22 03:31:55;;;;;;;22.57;2.63;;;;;;;;;;4975181;28;20515;-94
2023/12/22 03:34:41;;;;;;;28.97;2.23;;;;;;;;;;5445475;23;20100;-95
2023/12/22 03:37:11;;;;;;;13.93;2.08;;;;;;;;;;5007952;28;20626;-95
2023/12/22 03:39:36;;;;;;;25.35;2.45;;;;;;;;;;4960549;28;20118;-93
2023/12/22 03:42:02;;;;;;;27.83;2.37;;;;;;;;;;4990662;28;20610;-93
2023/12/22 03:44:27;;;;;;;21.00;1.80;;;;;;;;;;4992049;28;20026;-93
2023/12/22 03:46:52;;;;;;;18.90;1.70;;;;;;;;;;4958086;28;20022;-94
2023/12/22 03:49:19;;;;;;;18.20;1.97;;;;;;;;;;4980186;28;20030;-96
2023/12/22 03:51:44;;;;;;;14.38;1.83;;;;;;;;;;4977920;28;20022;-93
2023/12/22 03:54:10;;;;;;;19.43;2.03;;;;;;;;;;4989183;28;20038;-92
2023/12/22 03:56:35;;;;;;;17.87;1.97;;;;;;;;;;4961857;28;20030;-92
2023/12/22 03:59:00;;;;;;;15.57;2.67;;;;;;;;;;4989716;28;20029;-93
2023/12/22 04:01:25;;;;;;;16.17;1.63;;;;;;;;;;5017651;28;20022;-92
2023/12/22 04:03:51;;;;;;;25.73;2.37;;;;;;;;;;4998499;28;20006;-93
2023/12/22 04:06:16;;;;;;;14.23;1.47;;;;;;;;;;4982151;28;20325;-92
2023/12/22 04:08:41;;;;;;;19.10;2.00;;;;;;;;;;4980030;28;20455;-92
2023/12/22 04:11:06;;;;;;;15.10;1.70;;;;;;;;;;4983376;28;20027;-93
2023/12/22 04:13:32;;;;;;;22.20;3.67;;;;;;;;;;4980540;28;20086;-94
2023/12/22 04:15:57;;;;;;;25.13;1.63;;;;;;;;;;4962659;28;20018;-96
2023/12/22 04:18:22;;;;;;;14.07;1.60;;;;;;;;;;4984498;28;20038;-96
2023/12/22 04:20:51;;;;;;;18.17;1.83;;;;;;;;;;4982867;28;20033;-96
2023/12/22 04:23:16;;;;;;;14.55;1.60;;;;;;;;;;4997326;28;20034;-95
2023/12/22 04:25:44;;;;;;;22.13;1.70;;;;;;;;;;4982522;28;20167;-95
2023/12/22 04:28:09;;;;;;;23.25;1.90;;;;;;;;;;4988779;28;20046;-96
2023/12/22 04:30:35;;;;;;;22.87;1.80;;;;;;;;;;4975463;28;20034;-95
2023/12/22 04:33:00;;;;;;;16.95;1.85;;;;;;;;;;4973754;28;20101;-95
2023/12/22 04:35:25;;;;;;;15.63;1.87;;;;;;;;;;4973639;28;20030;-95
2023/12/22 04:38:00;;;;;;;20.00;1.50;;;;;;;;;;4974432;28;20022;-95
2023/12/22 04:40:27;;;;;;;13.55;2.03;;;;;;;;;;4986918;28;20029;-95
2023/12/22 04:42:53;;;;;;;21.25;1.88;;;;;;;;;;5003440;28;20594;-95
2023/12/22 04:45:18;;;;;;;16.43;1.60;;;;;;;;;;4987605;28;20018;-96
2023/12/22 04:47:43;;;;;;;15.07;1.50;;;;;;;;;;4975183;28;20023;-94
2023/12/22 04:50:09;;;;;;;10.20;1.33;;;;;;;;;;4994636;28;20072;-95
2023/12/22 04:52:34;;;;;;;23.93;2.03;;;;;;;;;;4994729;28;20022;-95
2023/12/22 04:54:59;;;;;;;15.40;1.83;;;;;;;;;;5007058;28;20042;-96
2023/12/22 04:57:24;;;;;;;12.93;1.50;;;;;;;;;;5010609;28;20141;-96
2023/12/22 04:59:50;;;;;;;18.97;2.83;;;;;;;;;;4995162;28;20461;-96
2023/12/22 05:02:25;;;;;;;18.53;2.10;;;;;;;;;;4991857;28;20053;-96
2023/12/22 05:04:50;;;;;;;17.60;1.60;;;;;;;;;;4983717;28;20053;-96
2023/12/22 05:07:16;;;;;;;14.40;1.63;;;;;;;;;;4975244;28;20027;-96
2023/12/22 05:09:41;;;;;;;17.10;1.97;;;;;;;;;;4984424;28;20049;-95
2023/12/22 05:12:07;;;;;;;16.35;1.67;;;;;;;;;;4983849;28;20034;-96
2023/12/22 05:14:32;;;;;;;17.80;1.70;;;;;;;;;;4982552;28;20387;-95
2023/12/22 05:16:57;;;;;;;18.37;2.33;;;;;;;;;;4983504;28;20111;-95
2023/12/22 05:19:23;;;;;;;11.43;1.97;;;;;;;;;;4977248;28;20427;-96
2023/12/22 05:21:59;;;;;;;15.10;1.63;;;;;;;;;;4985584;28;20026;-96
2023/12/22 05:24:25;;;;;;;9.60;1.30;;;;;;;;;;4960500;28;20019;-96
2023/12/22 05:26:50;;;;;;;11.97;1.77;;;;;;;;;;4977960;28;20030;-95
2023/12/22 05:29:19;;;;;;;10.50;1.43;;;;;;;;;;4960378;28;20467;-96
2023/12/22 05:31:44;;;;;;;14.70;1.30;;;;;;;;;;4959862;28;20031;-94
2023/12/22 05:34:20;;;;;;;11.37;1.60;;;;;;;;;;5000223;28;20443;-95
2023/12/22 05:36:45;;;;;;;18.55;1.85;;;;;;;;;;4986389;28;20041;-94
2023/12/22 05:39:10;;;;;;;14.50;1.77;;;;;;;;;;4986664;28;20022;-95
2023/12/22 05:41:37;;;;;;;21.53;2.50;;;;;;;;;;4979692;28;20019;-95
2023/12/22 05:44:12;;;;;;;26.05;2.70;;;;;;;;;;5000800;28;20037;-94
2023/12/22 05:46:38;;;;;;;28.48;2.53;;;;;;;;;;4965630;28;20030;-96
2023/12/22 05:49:11;;;;;;;26.48;2.85;;;;;;;;;;4974753;28;20018;-96
2023/12/22 05:51:40;;;;;;;31.33;3.50;;;;;;;;;;5007434;28;20289;-95
2023/12/22 05:54:08;;;;;;;26.27;2.90;;;;;;;;;;5008111;28;20102;-96
2023/12/22 05:56:34;;;;;;;25.35;2.95;;;;;;;;;;4982547;28;20034;-95
2023/12/22 05:58:59;;;;;;;31.37;4.10;;;;;;;;;;4994771;28;20545;-96
2023/12/22 06:01:24;;;;;;;25.40;3.33;;;;;;;;;;4977928;28;20562;-96
2023/12/22 06:03:50;;;;;;;37.50;3.80;;;;;;;;;;4978769;28;20023;-91
2023/12/22 06:06:15;;;;;;;32.77;2.70;;;;;;;;;;4957136;28;20527;-91
2023/12/22 06:08:40;;;;;;;26.70;3.07;;;;;;;;;;4975459;28;20383;-94
2023/12/22 06:11:05;;;;;;;29.30;3.43;;;;;;;;;;4974802;28;20026;-91
2023/12/22 06:13:31;;;;;;;28.87;3.60;;;;;;;;;;4981130;28;20057;-95
2023/12/22 06:15:56;;;;;;;31.05;3.40;;;;;;;;;;4991700;28;20049;-90
2023/12/22 06:18:23;;;;;;;37.10;3.33;;;;;;;;;;4973055;28;20482;-91
2023/12/22 06:20:48;;;;;;;42.90;4.30;;;;;;;;;;4973492;28;20015;-93
2023/12/22 06:23:13;;;;;;;30.17;3.27;;;;;;;;;;4974739;28;21098;-92
2023/12/22 06:25:38;;;;;;;38.57;3.07;;;;;;;;;;4974529;28;20049;-90
2023/12/22 06:28:03;;;;;;;42.47;4.33;;;;;;;;;;4975342;28;20027;-93
2023/12/22 06:30:30;;;;;;;53.30;4.10;;;;;;;;;;4990623;28;20030;-89
2023/12/22 06:32:56;;;;;;;37.25;3.85;;;;;;;;;;4987911;28;20073;-91
2023/12/22 06:35:23;;;;;;;38.33;4.47;;;;;;;;;;4990638;28;20026;-92
2023/12/22 06:37:49;;;;;;;34.53;4.50;;;;;;;;;;4979641;28;20884;-91
2023/12/22 06:40:14;;;;;;;47.50;4.97;;;;;;;;;;4974394;28;20026;-92
2023/12/22 06:42:39;;;;;;;27.93;4.13;;;;;;;;;;4992557;28;20106;-91
2023/12/22 06:45:05;;;;;;;44.63;4.47;;;;;;;;;;4991720;28;20018;-90
2023/12/22 06:47:30;;;;;;;34.57;4.50;;;;;;;;;;4975579;28;20475;-90
2023/12/22 06:49:56;;;;;;;33.13;3.13;;;;;;;;;;4979671;28;20037;-92
2023/12/22 06:52:21;;;;;;;40.83;4.75;;;;;;;;;;4985838;28;20030;-89
2023/12/22 06:54:47;;;;;;;40.90;4.60;;;;;;;;;;4991483;28;20023;-91
2023/12/22 06:57:12;;;;;;;42.13;4.40;;;;;;;;;;4987596;28;20058;-93
2023/12/22 06:59:39;;;;;;;55.13;4.60;;;;;;;;;;4992980;28;20042;-92
2023/12/22 07:02:04;;;;;;;44.17;4.70;;;;;;;;;;4993168;28;20075;-95
2023/12/22 07:04:30;;;;;;;43.00;4.70;;;;;;;;;;4976962;28;20316;-90
2023/12/22 07:06:55;;;;;;;37.43;4.33;;;;;;;;;;4978779;28;20030;-90
2023/12/22 07:09:21;;;;;;;51.20;4.60;;;;;;;;;;5001417;28;20467;-92
2023/12/22 07:11:47;;;;;;;49.23;5.80;;;;;;;;;;4985023;28;20071;-93
2023/12/22 07:14:12;;;;;;;45.83;4.97;;;;;;;;;;4983414;28;20015;-94
2023/12/22 07:16:38;;;;;;;39.00;4.40;;;;;;;;;;4988642;28;20035;-90
2023/12/22 07:19:06;;;;;;;49.00;5.43;;;;;;;;;;4988004;28;20023;-92
2023/12/22 07:21:31;;;;;;;46.72;4.70;;;;;;;;;;4973842;28;20030;-93
2023/12/22 07:23:58;;;;;;;32.33;4.30;;;;;;;;;;4976958;28;20114;-92
2023/12/22 07:26:26;;;;;;;54.88;4.75;;;;;;;;;;4988851;28;20050;-92
2023/12/22 07:28:52;;;;;;;32.85;3.90;;;;;;;;;;4980211;28;20037;-92
2023/12/22 07:31:18;;;;;;;45.83;5.57;;;;;;;;;;4993813;28;20059;-92
2023/12/22 07:33:43;;;;;;;34.85;4.30;;;;;;;;;;4992881;28;20097;-92
2023/12/22 07:36:09;;;;;;;45.40;4.67;;;;;;;;;;4978340;28;20070;-91
2023/12/22 07:38:35;;;;;;;34.40;4.53;;;;;;;;;;4981854;28;20022;-92
2023/12/22 07:41:01;;;;;;;34.65;3.92;;;;;;;;;;4990363;28;20101;-92
2023/12/22 07:43:26;;;;;;;36.13;4.60;;;;;;;;;;4996359;28;20068;-91
2023/12/22 07:45:51;;;;;;;47.30;4.30;;;;;;;;;;5005959;28;20044;-92
2023/12/22 07:48:19;;;;;;;40.20;4.80;;;;;;;;;;4971559;28;20474;-91
2023/12/22 07:50:46;;;;;;;33.58;3.78;;;;;;;;;;4970011;28;20026;-92
2023/12/22 07:53:11;;;;;;;38.15;4.00;;;;;;;;;;5001206;28;20033;-90
2023/12/22 07:55:38;;;;;;;45.10;5.63;;;;;;;;;;5012343;28;20042;-88
2023/12/22 07:58:04;;;;;;;35.40;4.65;;;;;;;;;;4988292;28;20029;-87
2023/12/22 08:00:29;;;;;;;47.73;4.70;;;;;;;;;;4979280;28;20102;-87
2023/12/22 08:02:54;;;;;;;38.60;3.87;;;;;;;;;;4978014;28;20053;-87
2023/12/22 08:05:20;;;;;;;32.78;4.07;;;;;;;;;;4971003;28;20074;-87
2023/12/22 08:07:46;;;;;;;39.50;4.27;;;;;;;;;;4980126;28;20057;-87
2023/12/22 08:10:11;;;;;;;38.63;4.20;;;;;;;;;;4956747;28;20022;-87
2023/12/22 08:12:37;;;;;;;38.63;3.60;;;;;;;;;;4986358;28;21063;-87
2023/12/22 08:15:02;;;;;;;36.90;3.83;;;;;;;;;;4970475;28;20034;-87
2023/12/22 08:17:31;;;;;;;42.30;4.23;;;;;;;;;;4971535;28;20030;-87
2023/12/22 08:19:56;;;;;;;35.17;3.35;;;;;;;;;;4969186;28;20023;-86
2023/12/22 08:22:22;;;;;;;34.55;4.57;;;;;;;;;;4980219;28;20058;-87
2023/12/22 08:24:47;;;;;;;33.83;3.40;;;;;;;;;;5005113;28;20061;-87
2023/12/22 08:27:13;;;;;;;37.43;4.57;;;;;;;;;;4983293;28;20019;-89
2023/12/22 08:29:38;;;;;;;30.17;3.77;;;;;;;;;;4977851;28;20041;-87
2023/12/22 08:32:03;;;;;;;30.90;3.20;;;;;;;;;;4969432;28;20018;-89
2023/12/22 08:34:28;;;;;;;19.13;3.15;;;;;;;;;;4980281;28;20510;-87
2023/12/22 08:36:54;;;;;;;24.93;3.23;;;;;;;;;;5028189;23;20441;-87
2023/12/22 08:39:19;;;;;;;28.33;3.03;;;;;;;;;;5029796;28;20555;-87
2023/12/22 08:41:45;;;;;;;24.07;3.17;;;;;;;;;;5028984;28;20481;-87
2023/12/22 08:44:10;;;;;;;18.97;2.40;;;;;;;;;;5031059;28;20085;-87
2023/12/22 08:46:35;;;;;;;32.60;2.70;;;;;;;;;;5007070;28;20109;-89
2023/12/22 08:49:01;;;;;;;21.37;2.70;;;;;;;;;;4995609;28;20007;-88
2023/12/22 08:51:26;;;;;;;21.60;2.23;;;;;;;;;;4998920;28;20014;-87
2023/12/22 08:53:52;;;;;;;23.10;2.53;;;;;;;;;;5031477;28;20018;-86
2023/12/22 08:56:17;;;;;;;19.75;2.60;;;;;;;;;;5001420;28;20030;-87
2023/12/22 08:58:43;;;;;;;18.17;3.33;;;;;;;;;;5004757;28;20041;-87
2023/12/22 09:01:13;;;;;;;15.20;2.47;;;;;;;;;;5013837;28;20037;-87
2023/12/22 09:03:43;;;;;;;19.98;1.85;;;;;;;;;;5010973;28;20654;-87
2023/12/22 09:06:18;;;;;;;13.85;2.00;;;;;;;;;;5293026;22;20023;-87
2023/12/22 09:08:44;;;;;;;17.65;2.30;;;;;;;;;;5011370;28;20021;-88
2023/12/22 09:14:12;;;;;;;14.48;1.70;;;;;;;;;;5011778;28;20132;-87
2023/12/22 09:16:37;;;;;;;8.20;1.97;;;;;;;;;;5004171;28;20042;-87
2023/12/22 09:19:03;;;;;;;12.20;1.83;;;;;;;;;;4998173;28;20015;-87
2023/12/22 09:21:28;;;;;;;10.93;1.80;;;;;;;;;;4993017;28;20026;-87
2023/12/22 09:23:54;;;;;;;10.13;1.20;;;;;;;;;;4994024;28;20104;-87
2023/12/22 09:26:19;;;;;;;13.07;1.50;;;;;;;;;;4988220;28;20360;-88
2023/12/22 09:28:45;;;;;;;16.83;1.87;;;;;;;;;;4974813;28;20101;-89
2023/12/22 09:31:10;;;;;;;9.50;1.63;;;;;;;;;;4990700;28;20058;-86
2023/12/22 09:33:36;;;;;;;11.87;1.60;;;;;;;;;;4994095;28;20022;-86
2023/12/22 09:36:01;;;;;;;12.03;1.77;;;;;;;;;;4989567;28;20034;-86
2023/12/22 09:38:27;;;;;;;13.37;2.03;;;;;;;;;;4981869;28;20497;-86
2023/12/22 09:40:53;;;;;;;8.70;1.60;;;;;;;;;;4980042;28;20525;-88
2023/12/22 09:43:19;;;;;;;7.67;1.17;;;;;;;;;;4993116;28;20023;-87
2023/12/22 09:45:45;;;;;;;9.65;1.10;;;;;;;;;;4993619;28;20024;-87
2023/12/22 09:48:10;;;;;;;9.93;1.20;;;;;;;;;;4992953;28;20594;-87
2023/12/22 09:50:36;;;;;;;3.33;0.87;;;;;;;;;;4992172;28;20042;-88
2023/12/22 09:53:02;;;;;;;7.05;1.08;;;;;;;;;;4993367;28;20027;-88
2023/12/22 09:55:28;;;;;;;6.03;1.00;;;;;;;;;;4990003;28;20036;-88
2023/12/22 09:57:54;;;;;;;4.60;1.17;;;;;;;;;;4985044;28;20022;-88
2023/12/22 10:00:20;;;;;;;8.68;2.33;;;;;;;;;;4991176;28;20022;-88
2023/12/22 10:02:46;;;;;;;3.28;0.70;;;;;;;;;;4993155;28;20121;-87
2023/12/22 10:05:13;;;;;;;7.70;0.97;;;;;;;;;;4993071;28;20109;-88
2023/12/22 10:07:38;;;;;;;7.77;1.00;;;;;;;;;;4980145;28;20512;-87
2023/12/22 10:10:04;;;;;;;4.57;0.83;;;;;;;;;;4989761;28;20372;-88
2023/12/22 10:12:30;;;;;;;8.23;1.13;;;;;;;;;;4993561;28;20101;-89
2023/12/22 10:14:56;;;;;;;4.37;1.13;;;;;;;;;;4982663;28;20097;-89
2023/12/22 10:17:21;;;;;;;6.80;1.40;;;;;;;;;;4977290;28;20031;-88
2023/12/22 10:19:47;;;;;;;5.60;0.80;;;;;;;;;;4993223;28;20038;-89
2023/12/22 10:22:12;;;;;;;10.88;1.20;;;;;;;;;;4992217;28;20022;-88
2023/12/22 10:24:46;;;;;;;4.80;1.00;;;;;;;;;;4991939;28;20018;-89
2023/12/22 10:27:12;;;;;;;6.20;1.50;;;;;;;;;;4992155;28;20489;-88
2023/12/22 10:29:37;;;;;;;6.27;0.90;;;;;;;;;;4992652;28;20014;-88
2023/12/22 10:32:03;;;;;;;7.50;1.20;;;;;;;;;;4987710;28;20016;-88
2023/12/22 10:34:32;;;;;;;8.02;1.05;;;;;;;;;;4992372;28;20026;-88
2023/12/22 10:36:59;;;;;;;7.50;1.20;;;;;;;;;;4987638;28;20666;-89
2023/12/22 10:39:26;;;;;;;7.63;0.90;;;;;;;;;;4991577;28;20018;-89
2023/12/22 10:41:52;;;;;;;5.97;2.03;;;;;;;;;;4992272;28;20077;-89
2023/12/22 10:44:18;;;;;;;5.93;1.40;;;;;;;;;;4992315;28;20673;-88
2023/12/22 10:47:17;;;;;;;5.87;1.17;;;;;;;;;;5066934;22;20152;-90
2023/12/22 10:49:45;;;;;;;5.03;1.00;;;;;;;;;;5005102;28;20052;-88
2023/12/22 10:52:20;;;;;;;5.80;1.10;;;;;;;;;;5009295;28;20018;-88
2023/12/22 10:54:45;;;;;;;6.30;1.20;;;;;;;;;;5027452;28;20013;-87
2023/12/22 10:57:14;;;;;;;4.93;0.90;;;;;;;;;;5125098;23;20413;-88
2023/12/22 10:59:43;;;;;;;4.45;1.30;;;;;;;;;;5011975;28;20020;-86
2023/12/22 11:02:12;;;;;;;5.40;1.40;;;;;;;;;;5012714;28;20025;-87
2023/12/22 11:04:38;;;;;;;7.55;1.20;;;;;;;;;;5012666;28;20230;-86
2023/12/22 11:07:03;;;;;;;5.90;1.20;;;;;;;;;;5010978;28;20077;-88
2023/12/22 11:09:31;;;;;;;4.63;0.90;;;;;;;;;;4989910;28;20106;-86
2023/12/22 11:11:56;;;;;;;7.30;1.75;;;;;;;;;;5011762;28;20014;-87
2023/12/22 11:14:22;;;;;;;7.80;1.20;;;;;;;;;;5003032;28;20533;-86
2023/12/22 11:16:48;;;;;;;8.00;1.35;;;;;;;;;;5004486;28;20029;-87
2023/12/22 11:19:14;;;;;;;7.55;1.38;;;;;;;;;;5011355;28;20461;-86
2023/12/22 11:21:40;;;;;;;8.68;1.42;;;;;;;;;;5004626;28;20026;-86
2023/12/22 11:24:05;;;;;;;7.33;1.43;;;;;;;;;;5000142;28;20046;-88
2023/12/22 11:26:31;;;;;;;8.27;1.70;;;;;;;;;;4997128;28;20030;-86
2023/12/22 11:28:56;;;;;;;10.33;1.30;;;;;;;;;;4992429;28;20284;-86
2023/12/22 11:31:23;;;;;;;6.57;1.20;;;;;;;;;;5008953;28;20081;-86
2023/12/22 11:33:49;;;;;;;4.32;1.40;;;;;;;;;;4992016;28;20022;-88
2023/12/22 11:36:15;;;;;;;4.57;1.20;;;;;;;;;;5004820;28;20034;-87
2023/12/22 11:38:40;;;;;;;9.30;2.03;;;;;;;;;;4997752;28;20113;-87
2023/12/22 11:41:07;;;;;;;6.82;1.42;;;;;;;;;;4999424;28;20028;-90
2023/12/22 11:43:33;;;;;;;6.17;0.90;;;;;;;;;;4993226;28;20028;-84
2023/12/22 11:46:05;;;;;;;5.55;1.33;;;;;;;;;;5001038;28;20041;-88
2023/12/22 11:48:30;;;;;;;13.52;1.50;;;;;;;;;;5006180;28;20478;-88
2023/12/22 11:50:55;;;;;;;5.90;1.20;;;;;;;;;;4996025;28;20025;-88
2023/12/22 11:53:22;;;;;;;4.43;1.60;;;;;;;;;;5034796;23;20543;-88
2023/12/22 11:56:04;;;;;;;5.97;1.40;;;;;;;;;;5009093;28;20737;-89
2023/12/22 11:58:43;;;;;;;9.93;1.30;;;;;;;;;;4992189;28;20435;-88
2023/12/22 12:01:09;;;;;;;8.45;1.63;;;;;;;;;;4990391;28;20025;-89
2023/12/22 12:03:40;;;;;;;8.45;1.50;;;;;;;;;;4995679;28;20371;-90
2023/12/22 12:06:11;;;;;;;5.88;1.33;;;;;;;;;;4991039;28;20049;-90
2023/12/22 12:08:36;;;;;;;5.83;1.03;;;;;;;;;;4987768;28;20026;-88
2023/12/22 12:11:03;;;;;;;10.57;1.30;;;;;;;;;;4988722;28;20817;-89
2023/12/22 12:13:30;;;;;;;8.60;1.30;;;;;;;;;;4989166;28;20022;-88
2023/12/22 12:15:58;;;;;;;5.80;1.50;;;;;;;;;;4989920;28;20097;-89
2023/12/22 12:18:24;;;;;;;16.45;3.70;;;;;;;;;;4989631;28;20026;-88
2023/12/22 12:20:49;;;;;;;17.98;3.10;;;;;;;;;;4987446;28;20437;-88
2023/12/22 12:23:15;;;;;;;8.47;1.20;;;;;;;;;;4995716;28;20026;-88
2023/12/22 12:25:41;;;;;;;8.83;1.47;;;;;;;;;;5004626;28;20059;-87
2023/12/22 12:28:11;;;;;;;8.07;1.30;;;;;;;;;;5002667;28;20060;-90
2023/12/22 12:30:37;;;;;;;7.13;1.10;;;;;;;;;;5010720;28;20068;-86
2023/12/22 12:33:06;;;;;;;10.00;1.58;;;;;;;;;;5011469;28;20022;-88
2023/12/22 12:35:32;;;;;;;7.93;1.50;;;;;;;;;;5016344;28;20028;-87
2023/12/22 12:37:58;;;;;;;19.90;7.20;;;;;;;;;;5029553;28;20100;-86
2023/12/22 12:40:24;;;;;;;8.73;1.67;;;;;;;;;;5018871;28;20042;-86
2023/12/22 12:42:49;;;;;;;10.15;1.67;;;;;;;;;;4991914;28;20057;-87
2023/12/22 12:45:15;;;;;;;7.40;1.20;;;;;;;;;;5008134;28;20112;-87
2023/12/22 12:47:40;;;;;;;8.20;1.33;;;;;;;;;;4992478;28;20022;-87
2023/12/22 12:50:05;;;;;;;9.23;1.40;;;;;;;;;;4992339;28;20049;-89
2023/12/22 12:52:31;;;;;;;6.60;1.30;;;;;;;;;;5016195;28;20014;-89
2023/12/22 12:54:58;;;;;;;6.67;1.47;;;;;;;;;;5014540;28;20048;-88
2023/12/22 12:57:23;;;;;;;9.32;1.10;;;;;;;;;;5034901;28;20030;-87
2023/12/22 12:59:49;;;;;;;5.57;1.30;;;;;;;;;;5012775;28;20021;-87
2023/12/22 13:02:18;;;;;;;4.07;1.10;;;;;;;;;;5012715;28;20394;-86
2023/12/22 13:04:44;;;;;;;9.77;1.08;;;;;;;;;;5010220;28;20018;-87
2023/12/22 13:07:18;;;;;;;10.33;1.53;;;;;;;;;;5009848;28;20021;-87
2023/12/22 13:09:44;;;;;;;7.47;1.15;;;;;;;;;;4991164;28;20088;-87
2023/12/22 13:12:09;;;;;;;5.83;1.10;;;;;;;;;;5007314;28;20062;-87
2023/12/22 13:14:34;;;;;;;8.48;1.10;;;;;;;;;;5010707;28;20014;-87
2023/12/22 13:17:00;;;;;;;11.87;1.10;;;;;;;;;;5008766;28;20482;-87
2023/12/22 13:19:26;;;;;;;10.33;1.20;;;;;;;;;;5009918;28;20393;-87
2023/12/22 13:21:52;;;;;;;12.23;1.25;;;;;;;;;;4991850;28;20022;-88
2023/12/22 13:24:17;;;;;;;6.45;1.30;;;;;;;;;;5009119;28;20025;-87
2023/12/22 13:26:43;;;;;;;8.63;1.53;;;;;;;;;;5009402;28;20037;-88
2023/12/22 13:29:09;;;;;;;12.20;2.20;;;;;;;;;;5012208;28;20053;-87
2023/12/22 13:31:39;;;;;;;8.20;1.27;;;;;;;;;;5012224;28;20382;-87
2023/12/22 13:34:10;;;;;;;7.93;0.98;;;;;;;;;;5011970;28;20091;-88
2023/12/22 13:36:38;;;;;;;9.95;1.52;;;;;;;;;;4994578;28;20034;-88
2023/12/22 13:39:04;;;;;;;9.13;1.10;;;;;;;;;;5009588;28;20048;-87
2023/12/22 13:41:31;;;;;;;7.63;1.50;;;;;;;;;;5011604;28;20096;-87
2023/12/22 13:43:57;;;;;;;9.00;1.27;;;;;;;;;;5011718;28;20671;-87
2023/12/22 13:46:26;;;;;;;6.93;1.27;;;;;;;;;;4995072;28;20030;-87
2023/12/22 13:48:53;;;;;;;11.75;1.50;;;;;;;;;;5011134;28;20465;-88
2023/12/22 13:51:18;;;;;;;7.53;1.40;;;;;;;;;;5010482;28;20120;-88
2023/12/22 13:53:47;;;;;;;16.73;1.60;;;;;;;;;;5011684;28;20061;-87
2023/12/22 13:56:13;;;;;;;9.10;1.53;;;;;;;;;;5012126;28;20022;-87
2023/12/22 13:58:45;;;;;;;7.27;1.00;;;;;;;;;;5010115;28;20318;-90
2023/12/22 14:01:17;;;;;;;7.30;1.40;;;;;;;;;;5011241;28;20025;-87
2023/12/22 14:03:44;;;;;;;10.93;1.40;;;;;;;;;;4980411;28;20021;-87
2023/12/22 14:06:11;;;;;;;8.37;1.20;;;;;;;;;;4974918;28;20376;-88
2023/12/22 14:08:37;;;;;;;12.80;1.73;;;;;;;;;;5006170;28;20065;-86
2023/12/22 14:11:02;;;;;;;7.90;1.97;;;;;;;;;;5011258;28;20034;-88
2023/12/22 14:13:27;;;;;;;12.45;1.40;;;;;;;;;;5011647;28;20097;-87
2023/12/22 14:15:52;;;;;;;12.13;2.37;;;;;;;;;;5009992;28;20030;-86
2023/12/22 14:18:18;;;;;;;13.63;1.60;;;;;;;;;;4994876;28;20018;-87
2023/12/22 14:20:44;;;;;;;7.17;1.33;;;;;;;;;;5031134;28;20381;-87
2023/12/22 14:23:11;;;;;;;9.53;1.60;;;;;;;;;;5013512;28;20099;-86
2023/12/22 14:25:37;;;;;;;13.07;1.47;;;;;;;;;;5012069;28;20263;-86
2023/12/22 14:28:02;;;;;;;12.03;1.70;;;;;;;;;;5015372;28;20037;-87
2023/12/22 14:30:27;;;;;;;11.10;1.48;;;;;;;;;;5011499;28;20028;-86